This is the latest recevied weather packets stored in our database for station/object PY2CQC-13. If no packets are shown the sender has not sent any weather packets the latest 10 day(s).
| Time | Temp. | Humidity | Pressure | Rain* | Wind** | Luminosity | Snow |
|---|---|---|---|---|---|---|---|
| 1777255325 | 27.22° C | 60% | 1030 hPa | - | - | - | - |
| 1777253525 | 27.22° C | 59% | 1029.9 hPa | - | - | - | - |
| 1777251724 | 27.22° C | 58% | 1030 hPa | - | - | - | - |
| 1777249925 | 27.22° C | 57% | 1030 hPa | - | - | - | - |
| 1777248124 | 27.22° C | 56% | 1029.9 hPa | - | - | - | - |
| 1777246324 | 27.22° C | 55% | 1029.8 hPa | - | - | - | - |
| 1777244525 | 27.78° C | 55% | 1029.4 hPa | - | - | - | - |
| 1777242725 | 27.78° C | 57% | 1029.3 hPa | - | - | - | - |
| 1777240925 | 27.78° C | 58% | 1029.1 hPa | - | - | - | - |
| 1777239125 | 28.33° C | 55% | 1029 hPa | - | - | - | - |
| 1777237324 | 28.33° C | 53% | 1028.9 hPa | - | - | - | - |
| 1777235524 | 28.89° C | 51% | 1028.7 hPa | - | - | - | - |
| 1777233724 | 29.44° C | 48% | 1028.5 hPa | - | - | - | - |
| 1777231925 | 29.44° C | 46% | 1028.3 hPa | - | - | - | - |
| 1777230126 | 30.56° C | 45% | 1028.1 hPa | - | - | - | - |
| 1777228325 | 30° C | 48% | 1028.1 hPa | - | - | - | - |
| 1777226525 | 30° C | 47% | 1028.3 hPa | - | - | - | - |
| 1777224724 | 28.33° C | 52% | 1028.1 hPa | - | - | - | - |
| 1777222924 | 29.44° C | 49% | 1028.4 hPa | - | - | - | - |
| 1777221124 | 27.78° C | 53% | 1029 hPa | - | - | - | - |
| 1777219325 | 28.89° C | 51% | 1029.5 hPa | - | - | - | - |
| 1777217525 | 29.44° C | 49% | 1029.9 hPa | - | - | - | - |
| 1777215725 | 28.33° C | 52% | 1030.3 hPa | - | - | - | - |
| 1777213925 | 27.22° C | 56% | 1030.7 hPa | - | - | - | - |
| 1777212125 | 28.33° C | 55% | 1031 hPa | - | - | - | - |
* Rain since midnight (hover to see other rain measurements)
** Current wind speed in m/s (hover to see current wind gust speed)